sensor_id;sensor_type;location;lat;lon;timestamp;pressure;altitude;pressure_sealevel;temperature
65180;BMP280;51849;47.476;8.084;2022-09-09T00:04:37;96294.53;;;14.12
65180;BMP280;51849;47.476;8.084;2022-09-09T00:18:12;96304.78;;;14.29
65180;BMP280;51849;47.476;8.084;2022-09-09T00:23:50;96304.78;;;14.29
65180;BMP280;51849;47.476;8.084;2022-09-09T00:26:51;96310.03;;;14.29
65180;BMP280;51849;47.476;8.084;2022-09-09T00:29:28;96318.84;;;14.13
65180;BMP280;51849;47.476;8.084;2022-09-09T00:32:13;96317.63;;;14.14
65180;BMP280;51849;47.476;8.084;2022-09-09T00:35:04;96324.91;;;14.21
65180;BMP280;51849;47.476;8.084;2022-09-09T00:37:38;96341.28;;;14.27
65180;BMP280;51849;47.476;8.084;2022-09-09T00:40:34;96333.63;;;14.29
65180;BMP280;51849;47.476;8.084;2022-09-09T00:43:28;96342.94;;;14.30
65180;BMP280;51849;47.476;8.084;2022-09-09T00:46:14;96337.69;;;14.30
65180;BMP280;51849;47.476;8.084;2022-09-09T00:54:57;96329.47;;;14.39
65180;BMP280;51849;47.476;8.084;2022-09-09T00:57:40;96328.91;;;14.46
65180;BMP280;51849;47.476;8.084;2022-09-09T01:00:23;96321.66;;;14.52
65180;BMP280;51849;47.476;8.084;2022-09-09T01:11:41;96318.88;;;14.63
65180;BMP280;51849;47.476;8.084;2022-09-09T01:18:08;96308.81;;;14.67
65180;BMP280;51849;47.476;8.084;2022-09-09T01:20:17;96309.44;;;14.73
65180;BMP280;51849;47.476;8.084;2022-09-09T01:28:13;96318.34;;;14.83
65180;BMP280;51849;47.476;8.084;2022-09-09T01:30:44;96312.78;;;14.86
65180;BMP280;51849;47.476;8.084;2022-09-09T01:33:19;96317.13;;;14.84
65180;BMP280;51849;47.476;8.084;2022-09-09T01:35:55;96318.03;;;14.86
65180;BMP280;51849;47.476;8.084;2022-09-09T01:38:26;96320.53;;;14.79
65180;BMP280;51849;47.476;8.084;2022-09-09T01:40:53;96330.25;;;14.84
65180;BMP280;51849;47.476;8.084;2022-09-09T01:43:38;96330.69;;;14.88
65180;BMP280;51849;47.476;8.084;2022-09-09T01:46:04;96331.66;;;14.85
65180;BMP280;51849;47.476;8.084;2022-09-09T01:48:34;96330.47;;;14.86
65180;BMP280;51849;47.476;8.084;2022-09-09T01:51:00;96330.69;;;14.88
65180;BMP280;51849;47.476;8.084;2022-09-09T01:53:28;96332.09;;;14.89
65180;BMP280;51849;47.476;8.084;2022-09-09T01:58:41;96342.72;;;14.96
65180;BMP280;51849;47.476;8.084;2022-09-09T02:01:30;96339.91;;;14.94
65180;BMP280;51849;47.476;8.084;2022-09-09T02:04:05;96346.56;;;14.95
65180;BMP280;51849;47.476;8.084;2022-09-09T02:06:37;96354.22;;;14.93
65180;BMP280;51849;47.476;8.084;2022-09-09T02:09:11;96353.09;;;14.89
65180;BMP280;51849;47.476;8.084;2022-09-09T02:11:46;96362.41;;;14.90
65180;BMP280;51849;47.476;8.084;2022-09-09T02:14:23;96354.22;;;14.93
65180;BMP280;51849;47.476;8.084;2022-09-09T02:16:54;96363.03;;;14.96
65180;BMP280;51849;47.476;8.084;2022-09-09T02:19:25;96362.22;;;14.88
65180;BMP280;51849;47.476;8.084;2022-09-09T02:21:57;96353.09;;;14.89
65180;BMP280;51849;47.476;8.084;2022-09-09T02:24:29;96358.38;;;14.89
65180;BMP280;51849;47.476;8.084;2022-09-09T02:27:00;96338.97;;;14.92
65180;BMP280;51849;47.476;8.084;2022-09-09T02:29:35;96327.47;;;14.95
65180;BMP280;51849;47.476;8.084;2022-09-09T02:32:09;96329.59;;;14.96
65180;BMP280;51849;47.476;8.084;2022-09-09T02:34:46;96334.56;;;15.00
65180;BMP280;51849;47.476;8.084;2022-09-09T02:37:18;96338.63;;;15.01
65180;BMP280;51849;47.476;8.084;2022-09-09T02:39:44;96340.31;;;14.98
65180;BMP280;51849;47.476;8.084;2022-09-09T02:42:13;96343.88;;;15.01
65180;BMP280;51849;47.476;8.084;2022-09-09T02:44:40;96340.09;;;14.96
65180;BMP280;51849;47.476;8.084;2022-09-09T02:52:18;96336.19;;;15.03
65180;BMP280;51849;47.476;8.084;2022-09-09T02:54:47;96321.81;;;15.04
65180;BMP280;51849;47.476;8.084;2022-09-09T02:57:31;96310.13;;;15.05
65180;BMP280;51849;47.476;8.084;2022-09-09T02:59:58;96298.41;;;15.06
65180;BMP280;51849;47.476;8.084;2022-09-09T03:02:24;96307.28;;;15.03
65180;BMP280;51849;47.476;8.084;2022-09-09T03:04:58;96310.50;;;14.96
65180;BMP280;51849;47.476;8.084;2022-09-09T03:07:23;96319.53;;;14.82
65180;BMP280;51849;47.476;8.084;2022-09-09T03:09:52;96323.72;;;14.90
65180;BMP280;51849;47.476;8.084;2022-09-09T03:12:21;96326.72;;;14.81
65180;BMP280;51849;47.476;8.084;2022-09-09T03:14:46;96315.78;;;14.77
65180;BMP280;51849;47.476;8.084;2022-09-09T03:17:18;96319.97;;;14.86
65180;BMP280;51849;47.476;8.084;2022-09-09T03:19:44;96320.59;;;14.92
65180;BMP280;51849;47.476;8.084;2022-09-09T03:22:10;96315.25;;;14.97
65180;BMP280;51849;47.476;8.084;2022-09-09T03:24:41;96317.19;;;14.97
65180;BMP280;51849;47.476;8.084;2022-09-09T03:27:10;96309.97;;;14.97
65180;BMP280;51849;47.476;8.084;2022-09-09T03:29:38;96313.13;;;14.96
65180;BMP280;51849;47.476;8.084;2022-09-09T03:32:04;96308.06;;;14.98
65180;BMP280;51849;47.476;8.084;2022-09-09T03:34:30;96308.47;;;15.02
65180;BMP280;51849;47.476;8.084;2022-09-09T03:36:56;96317.59;;;15.01
65180;BMP280;51849;47.476;8.084;2022-09-09T03:39:24;96317.50;;;15.07
65180;BMP280;51849;47.476;8.084;2022-09-09T03:41:53;96309.00;;;15.14
65180;BMP280;51849;47.476;8.084;2022-09-09T03:44:22;96321.88;;;15.17
65180;BMP280;51849;47.476;8.084;2022-09-09T03:46:47;96306.78;;;15.05
65180;BMP280;51849;47.476;8.084;2022-09-09T03:49:13;96311.53;;;15.06
65180;BMP280;51849;47.476;8.084;2022-09-09T03:51:39;96303.44;;;15.04
65180;BMP280;51849;47.476;8.084;2022-09-09T03:54:08;96303.56;;;15.12
65180;BMP280;51849;47.476;8.084;2022-09-09T03:56:36;96303.34;;;15.10
65180;BMP280;51849;47.476;8.084;2022-09-09T03:59:03;96302.28;;;15.18
65180;BMP280;51849;47.476;8.084;2022-09-09T04:01:29;96297.53;;;15.17
65180;BMP280;51849;47.476;8.084;2022-09-09T04:03:58;96309.13;;;15.08
65180;BMP280;51849;47.476;8.084;2022-09-09T04:06:24;96306.38;;;15.14
65180;BMP280;51849;47.476;8.084;2022-09-09T04:08:50;96307.50;;;15.05
65180;BMP280;51849;47.476;8.084;2022-09-09T04:11:18;96308.47;;;15.02
65180;BMP280;51849;47.476;8.084;2022-09-09T04:13:43;96314.44;;;15.02
65180;BMP280;51849;47.476;8.084;2022-09-09T04:16:11;96320.63;;;15.05
65180;BMP280;51849;47.476;8.084;2022-09-09T04:18:38;96315.59;;;15.20
65180;BMP280;51849;47.476;8.084;2022-09-09T04:21:04;96312.69;;;15.24
65180;BMP280;51849;47.476;8.084;2022-09-09T04:23:32;96311.13;;;15.15
65180;BMP280;51849;47.476;8.084;2022-09-09T04:26:00;96306.91;;;15.12
65180;BMP280;51849;47.476;8.084;2022-09-09T04:28:32;96314.38;;;15.08
65180;BMP280;51849;47.476;8.084;2022-09-09T04:31:14;96310.63;;;15.04
65180;BMP280;51849;47.476;8.084;2022-09-09T04:33:43;96311.31;;;15.04
65180;BMP280;51849;47.476;8.084;2022-09-09T04:36:12;96323.03;;;15.03
65180;BMP280;51849;47.476;8.084;2022-09-09T04:38:47;96315.16;;;15.03
65180;BMP280;51849;47.476;8.084;2022-09-09T04:41:17;96320.41;;;15.03
65180;BMP280;51849;47.476;8.084;2022-09-09T04:43:45;96320.84;;;15.07
65180;BMP280;51849;47.476;8.084;2022-09-09T04:46:11;96324.16;;;15.08
65180;BMP280;51849;47.476;8.084;2022-09-09T04:48:37;96323.66;;;15.09
65180;BMP280;51849;47.476;8.084;2022-09-09T04:51:08;96321.81;;;15.04
65180;BMP280;51849;47.476;8.084;2022-09-09T04:53:35;96320.13;;;15.07
65180;BMP280;51849;47.476;8.084;2022-09-09T04:58:31;96323.03;;;15.03
65180;BMP280;51849;47.476;8.084;2022-09-09T05:01:11;96328.50;;;15.05
65180;BMP280;51849;47.476;8.084;2022-09-09T05:03:37;96327.50;;;15.08
65180;BMP280;51849;47.476;8.084;2022-09-09T05:06:09;96331.34;;;15.07
65180;BMP280;51849;47.476;8.084;2022-09-09T05:08:50;96328.91;;;15.09
65180;BMP280;51849;47.476;8.084;2022-09-09T05:11:20;96324.88;;;15.08
65180;BMP280;51849;47.476;8.084;2022-09-09T05:13:47;96332.75;;;15.08
65180;BMP280;51849;47.476;8.084;2022-09-09T05:16:13;96332.25;;;15.10
65180;BMP280;51849;47.476;8.084;2022-09-09T05:18:40;96325.09;;;15.10
65180;BMP280;51849;47.476;8.084;2022-09-09T05:21:09;96325.09;;;15.10
65180;BMP280;51849;47.476;8.084;2022-09-09T05:23:37;96324.59;;;15.12
65180;BMP280;51849;47.476;8.084;2022-09-09T05:26:04;96328.13;;;15.14
65180;BMP280;51849;47.476;8.084;2022-09-09T05:28:30;96333.38;;;15.14
65180;BMP280;51849;47.476;8.084;2022-09-09T05:31:00;96322.69;;;15.12
65180;BMP280;51849;47.476;8.084;2022-09-09T05:33:29;96331.84;;;15.19
65180;BMP280;51849;47.476;8.084;2022-09-09T05:35:59;96319.66;;;15.21
65180;BMP280;51849;47.476;8.084;2022-09-09T05:38:25;96330.38;;;15.23
65180;BMP280;51849;47.476;8.084;2022-09-09T05:40:52;96332.22;;;15.28
65180;BMP280;51849;47.476;8.084;2022-09-09T05:43:21;96340.69;;;15.34
65180;BMP280;51849;47.476;8.084;2022-09-09T05:45:48;96333.94;;;15.39
65180;BMP280;51849;47.476;8.084;2022-09-09T05:48:14;96327.63;;;15.42
65180;BMP280;51849;47.476;8.084;2022-09-09T05:50:42;96324.81;;;15.40
65180;BMP280;51849;47.476;8.084;2022-09-09T05:53:09;96333.34;;;15.46
65180;BMP280;51849;47.476;8.084;2022-09-09T05:55:38;96329.59;;;15.54
65180;BMP280;51849;47.476;8.084;2022-09-09T05:58:04;96329.38;;;15.65
65180;BMP280;51849;47.476;8.084;2022-09-09T06:00:32;96326.16;;;15.72
65180;BMP280;51849;47.476;8.084;2022-09-09T06:03:01;96324.69;;;15.84
65180;BMP280;51849;47.476;8.084;2022-09-09T06:05:27;96325.78;;;16.02
65180;BMP280;51849;47.476;8.084;2022-09-09T06:08:13;96329.00;;;16.21
65180;BMP280;51849;47.476;8.084;2022-09-09T06:10:39;96334.09;;;16.39
65180;BMP280;51849;47.476;8.084;2022-09-09T06:13:05;96334.81;;;16.40
65180;BMP280;51849;47.476;8.084;2022-09-09T06:15:30;96342.00;;;16.39
65180;BMP280;51849;47.476;8.084;2022-09-09T06:17:57;96334.91;;;16.14
65180;BMP280;51849;47.476;8.084;2022-09-09T06:20:25;96348.22;;;16.16
65180;BMP280;51849;47.476;8.084;2022-09-09T06:22:51;96342.41;;;16.10
65180;BMP280;51849;47.476;8.084;2022-09-09T06:25:20;96346.91;;;16.22
65180;BMP280;51849;47.476;8.084;2022-09-09T06:27:50;96342.59;;;16.12
65180;BMP280;51849;47.476;8.084;2022-09-09T06:30:16;96352.50;;;16.06
65180;BMP280;51849;47.476;8.084;2022-09-09T06:32:42;96344.13;;;16.07
65180;BMP280;51849;47.476;8.084;2022-09-09T06:35:11;96346.88;;;16.35
65180;BMP280;51849;47.476;8.084;2022-09-09T06:37:45;96347.97;;;16.40
65180;BMP280;51849;47.476;8.084;2022-09-09T06:40:10;96348.63;;;16.53
65180;BMP280;51849;47.476;8.084;2022-09-09T06:42:36;96353.09;;;16.58
65180;BMP280;51849;47.476;8.084;2022-09-09T06:45:05;96354.03;;;16.69
65180;BMP280;51849;47.476;8.084;2022-09-09T06:47:35;96345.25;;;16.66
65180;BMP280;51849;47.476;8.084;2022-09-09T06:50:01;96360.09;;;16.77
65180;BMP280;51849;47.476;8.084;2022-09-09T06:52:30;96362.78;;;16.84
65180;BMP280;51849;47.476;8.084;2022-09-09T06:54:55;96364.84;;;16.78
65180;BMP280;51849;47.476;8.084;2022-09-09T06:57:23;96359.19;;;16.95
65180;BMP280;51849;47.476;8.084;2022-09-09T06:59:49;96363.50;;;17.05
65180;BMP280;51849;47.476;8.084;2022-09-09T07:02:15;96367.84;;;17.23
65180;BMP280;51849;47.476;8.084;2022-09-09T07:04:40;96359.88;;;17.36
65180;BMP280;51849;47.476;8.084;2022-09-09T07:07:06;96371.19;;;17.52
65180;BMP280;51849;47.476;8.084;2022-09-09T07:09:33;96367.94;;;17.66
65180;BMP280;51849;47.476;8.084;2022-09-09T07:12:16;96365.78;;;17.93
65180;BMP280;51849;47.476;8.084;2022-09-09T07:14:45;96366.09;;;17.82
65180;BMP280;51849;47.476;8.084;2022-09-09T07:17:11;96374.22;;;17.99
65180;BMP280;51849;47.476;8.084;2022-09-09T07:19:39;96365.50;;;18.19
65180;BMP280;51849;47.476;8.084;2022-09-09T07:22:05;96370.09;;;18.18
65180;BMP280;51849;47.476;8.084;2022-09-09T07:24:33;96367.31;;;18.24
65180;BMP280;51849;47.476;8.084;2022-09-09T07:26:59;96375.78;;;18.37
65180;BMP280;51849;47.476;8.084;2022-09-09T07:29:25;96377.75;;;18.52
65180;BMP280;51849;47.476;8.084;2022-09-09T07:31:56;96370.88;;;18.57
65180;BMP280;51849;47.476;8.084;2022-09-09T07:34:24;96372.63;;;18.54
65180;BMP280;51849;47.476;8.084;2022-09-09T07:36:50;96370.91;;;18.72
65180;BMP280;51849;47.476;8.084;2022-09-09T07:39:17;96373.38;;;18.77
65180;BMP280;51849;47.476;8.084;2022-09-09T07:41:46;96375.50;;;18.94
65180;BMP280;51849;47.476;8.084;2022-09-09T07:44:17;96377.44;;;18.86
65180;BMP280;51849;47.476;8.084;2022-09-09T07:46:44;96379.72;;;19.19
65180;BMP280;51849;47.476;8.084;2022-09-09T07:49:30;96381.97;;;19.53
65180;BMP280;51849;47.476;8.084;2022-09-09T07:51:57;96388.41;;;19.74
65180;BMP280;51849;47.476;8.084;2022-09-09T07:54:25;96381.78;;;19.43
65180;BMP280;51849;47.476;8.084;2022-09-09T07:56:52;96386.78;;;19.17
65180;BMP280;51849;47.476;8.084;2022-09-09T07:59:18;96389.22;;;19.37
65180;BMP280;51849;47.476;8.084;2022-09-09T08:01:47;96397.69;;;19.51
65180;BMP280;51849;47.476;8.084;2022-09-09T08:04:15;96386.72;;;19.54
65180;BMP280;51849;47.476;8.084;2022-09-09T08:06:58;96384.53;;;19.75
65180;BMP280;51849;47.476;8.084;2022-09-09T08:09:25;96395.47;;;19.79
65180;BMP280;51849;47.476;8.084;2022-09-09T08:11:55;96398.03;;;19.47
65180;BMP280;51849;47.476;8.084;2022-09-09T08:14:22;96395.91;;;19.38
65180;BMP280;51849;47.476;8.084;2022-09-09T08:16:50;96393.28;;;19.38
65180;BMP280;51849;47.476;8.084;2022-09-09T08:19:16;96394.88;;;19.26
65180;BMP280;51849;47.476;8.084;2022-09-09T08:21:44;96400.88;;;19.34
65180;BMP280;51849;47.476;8.084;2022-09-09T08:24:11;96397.66;;;19.36
65180;BMP280;51849;47.476;8.084;2022-09-09T08:26:39;96399.28;;;19.46
65180;BMP280;51849;47.476;8.084;2022-09-09T08:29:07;96394.53;;;19.37
65180;BMP280;51849;47.476;8.084;2022-09-09T08:31:58;96401.06;;;19.29
65180;BMP280;51849;47.476;8.084;2022-09-09T08:34:25;96396.28;;;19.05
65180;BMP280;51849;47.476;8.084;2022-09-09T08:36:54;96398.94;;;19.12
65180;BMP280;51849;47.476;8.084;2022-09-09T08:39:21;96404.75;;;19.18
65180;BMP280;51849;47.476;8.084;2022-09-09T08:45:00;96405.44;;;19.26
65180;BMP280;51849;47.476;8.084;2022-09-09T08:56:14;96403.38;;;19.02
65180;BMP280;51849;47.476;8.084;2022-09-09T08:58:54;96404.75;;;19.03
65180;BMP280;51849;47.476;8.084;2022-09-09T09:01:39;96410.06;;;19.03
65180;BMP280;51849;47.476;8.084;2022-09-09T09:04:21;96419.19;;;18.87
65180;BMP280;51849;47.476;8.084;2022-09-09T09:07:21;96417.63;;;18.99
65180;BMP280;51849;47.476;8.084;2022-09-09T09:12:46;96409.13;;;18.78
65180;BMP280;51849;47.476;8.084;2022-09-09T09:15:31;96410.06;;;19.11
65180;BMP280;51849;47.476;8.084;2022-09-09T09:18:03;96411.81;;;18.93
65180;BMP280;51849;47.476;8.084;2022-09-09T09:20:41;96407.75;;;19.00
65180;BMP280;51849;47.476;8.084;2022-09-09T09:23:25;96409.16;;;18.86
65180;BMP280;51849;47.476;8.084;2022-09-09T09:25:58;96412.69;;;18.88
65180;BMP280;51849;47.476;8.084;2022-09-09T09:28:31;96402.81;;;18.89
65180;BMP280;51849;47.476;8.084;2022-09-09T09:31:11;96401.19;;;18.78
65180;BMP280;51849;47.476;8.084;2022-09-09T09:36:12;96393.66;;;18.82
65180;BMP280;51849;47.476;8.084;2022-09-09T09:38:53;96397.00;;;19.05
65180;BMP280;51849;47.476;8.084;2022-09-09T09:44:05;96405.44;;;19.11
65180;BMP280;51849;47.476;8.084;2022-09-09T09:46:35;96403.66;;;18.91
65180;BMP280;51849;47.476;8.084;2022-09-09T09:49:09;96406.16;;;18.89
65180;BMP280;51849;47.476;8.084;2022-09-09T09:51:35;96405.81;;;18.93
65180;BMP280;51849;47.476;8.084;2022-09-09T09:56:40;96411.97;;;18.95
65180;BMP280;51849;47.476;8.084;2022-09-09T09:59:23;96399.81;;;19.30
65180;BMP280;51849;47.476;8.084;2022-09-09T10:02:13;96400.47;;;19.60
65180;BMP280;51849;47.476;8.084;2022-09-09T10:04:43;96397.84;;;20.00
65180;BMP280;51849;47.476;8.084;2022-09-09T10:07:19;96408.34;;;20.22
65180;BMP280;51849;47.476;8.084;2022-09-09T10:09:55;96412.19;;;20.36
65180;BMP280;51849;47.476;8.084;2022-09-09T10:20:35;96388.16;;;20.84
65180;BMP280;51849;47.476;8.084;2022-09-09T10:29:15;96382.22;;;21.17
65180;BMP280;51849;47.476;8.084;2022-09-09T10:31:54;96376.69;;;21.40
65180;BMP280;51849;47.476;8.084;2022-09-09T10:37:43;96373.31;;;21.39
65180;BMP280;51849;47.476;8.084;2022-09-09T10:57:36;96370.78;;;21.92
65180;BMP280;51849;47.476;8.084;2022-09-09T11:00:05;96373.16;;;21.98
65180;BMP280;51849;47.476;8.084;2022-09-09T11:02:33;96366.59;;;21.99
65180;BMP280;51849;47.476;8.084;2022-09-09T11:05:14;96356.78;;;22.18
65180;BMP280;51849;47.476;8.084;2022-09-09T11:07:55;96351.84;;;22.51
65180;BMP280;51849;47.476;8.084;2022-09-09T11:18:57;96339.13;;;22.59
65180;BMP280;51849;47.476;8.084;2022-09-09T11:21:30;96343.63;;;22.66
65180;BMP280;51849;47.476;8.084;2022-09-09T11:24:26;96343.47;;;22.45
65180;BMP280;51849;47.476;8.084;2022-09-09T11:27:20;96333.50;;;22.45
65180;BMP280;51849;47.476;8.084;2022-09-09T11:36:13;96333.88;;;22.23
65180;BMP280;51849;47.476;8.084;2022-09-09T11:38:52;96332.66;;;22.43
65180;BMP280;51849;47.476;8.084;2022-09-09T11:41:21;96336.31;;;22.47
65180;BMP280;51849;47.476;8.084;2022-09-09T11:43:54;96333.84;;;22.68
65180;BMP280;51849;47.476;8.084;2022-09-09T11:46:35;96337.22;;;22.78
65180;BMP280;51849;47.476;8.084;2022-09-09T11:49:06;96343.38;;;22.81
65180;BMP280;51849;47.476;8.084;2022-09-09T11:51:33;96336.44;;;23.04
65180;BMP280;51849;47.476;8.084;2022-09-09T11:54:02;96329.13;;;23.14
65180;BMP280;51849;47.476;8.084;2022-09-09T11:56:48;96333.06;;;23.23
65180;BMP280;51849;47.476;8.084;2022-09-09T11:59:38;96328.00;;;23.36
65180;BMP280;51849;47.476;8.084;2022-09-09T12:02:22;96328.56;;;23.35
65180;BMP280;51849;47.476;8.084;2022-09-09T12:05:09;96338.31;;;23.61
65180;BMP280;51849;47.476;8.084;2022-09-09T12:07:52;96340.59;;;23.55
65180;BMP280;51849;47.476;8.084;2022-09-09T12:12:52;96329.78;;;23.53
65180;BMP280;51849;47.476;8.084;2022-09-09T12:15:28;96331.41;;;23.77
65180;BMP280;51849;47.476;8.084;2022-09-09T12:17:56;96319.53;;;23.68
65180;BMP280;51849;47.476;8.084;2022-09-09T12:20:36;96319.22;;;23.74
65180;BMP280;51849;47.476;8.084;2022-09-09T12:23:26;96322.22;;;23.59
65180;BMP280;51849;47.476;8.084;2022-09-09T12:26:23;96320.84;;;23.39
65180;BMP280;51849;47.476;8.084;2022-09-09T12:28:57;96316.63;;;23.36
65180;BMP280;51849;47.476;8.084;2022-09-09T12:31:49;96318.19;;;23.20
65180;BMP280;51849;47.476;8.084;2022-09-09T12:34:32;96322.13;;;23.19
65180;BMP280;51849;47.476;8.084;2022-09-09T12:37:05;96318.31;;;23.41
65180;BMP280;51849;47.476;8.084;2022-09-09T12:39:44;96327.56;;;23.21
65180;BMP280;51849;47.476;8.084;2022-09-09T12:42:22;96321.03;;;22.93
65180;BMP280;51849;47.476;8.084;2022-09-09T12:45:03;96318.31;;;23.03
65180;BMP280;51849;47.476;8.084;2022-09-09T12:47:47;96315.25;;;22.87
65180;BMP280;51849;47.476;8.084;2022-09-09T12:50:49;96315.09;;;22.85
65180;BMP280;51849;47.476;8.084;2022-09-09T12:53:56;96312.44;;;23.14
65180;BMP280;51849;47.476;8.084;2022-09-09T12:56:20;96313.50;;;23.49
65180;BMP280;51849;47.476;8.084;2022-09-09T12:58:50;96306.41;;;23.42
65180;BMP280;51849;47.476;8.084;2022-09-09T13:01:26;96313.00;;;23.41
65180;BMP280;51849;47.476;8.084;2022-09-09T13:03:55;96313.97;;;23.36
65180;BMP280;51849;47.476;8.084;2022-09-09T13:06:29;96306.53;;;23.34
65180;BMP280;51849;47.476;8.084;2022-09-09T13:08:57;96304.34;;;23.12
65180;BMP280;51849;47.476;8.084;2022-09-09T13:11:46;96307.25;;;23.25
65180;BMP280;51849;47.476;8.084;2022-09-09T13:14:19;96306.44;;;23.04
65180;BMP280;51849;47.476;8.084;2022-09-09T13:16:59;96299.81;;;23.05
65180;BMP280;51849;47.476;8.084;2022-09-09T13:19:29;96294.94;;;23.20
65180;BMP280;51849;47.476;8.084;2022-09-09T13:22:00;96294.50;;;23.05
65180;BMP280;51849;47.476;8.084;2022-09-09T13:24:37;96302.22;;;22.72
65180;BMP280;51849;47.476;8.084;2022-09-09T13:27:26;96303.72;;;22.47
65180;BMP280;51849;47.476;8.084;2022-09-09T13:29:55;96307.16;;;22.30
65180;BMP280;51849;47.476;8.084;2022-09-09T13:32:23;96313.78;;;22.12
65180;BMP280;51849;47.476;8.084;2022-09-09T13:35:25;96330.25;;;21.75
65180;BMP280;51849;47.476;8.084;2022-09-09T13:37:50;96338.75;;;21.47
65180;BMP280;51849;47.476;8.084;2022-09-09T13:40:22;96339.16;;;21.43
65180;BMP280;51849;47.476;8.084;2022-09-09T13:42:56;96326.75;;;21.29
65180;BMP280;51849;47.476;8.084;2022-09-09T13:45:26;96325.41;;;21.37
65180;BMP280;51849;47.476;8.084;2022-09-09T13:48:09;96317.19;;;21.60
65180;BMP280;51849;47.476;8.084;2022-09-09T13:51:02;96313.88;;;21.95
65180;BMP280;51849;47.476;8.084;2022-09-09T13:53:30;96308.00;;;21.97
65180;BMP280;51849;47.476;8.084;2022-09-09T13:55:56;96315.81;;;22.21
65180;BMP280;51849;47.476;8.084;2022-09-09T13:58:44;96310.84;;;22.54
65180;BMP280;51849;47.476;8.084;2022-09-09T14:01:12;96306.81;;;22.53
65180;BMP280;51849;47.476;8.084;2022-09-09T14:03:38;96300.81;;;22.62
65180;BMP280;51849;47.476;8.084;2022-09-09T14:06:04;96298.84;;;22.62
65180;BMP280;51849;47.476;8.084;2022-09-09T14:08:29;96296.72;;;22.61
65180;BMP280;51849;47.476;8.084;2022-09-09T14:11:06;96292.94;;;22.54
65180;BMP280;51849;47.476;8.084;2022-09-09T14:13:34;96303.19;;;22.58
65180;BMP280;51849;47.476;8.084;2022-09-09T14:15:59;96305.84;;;22.58
65180;BMP280;51849;47.476;8.084;2022-09-09T14:18:25;96302.72;;;22.52
65180;BMP280;51849;47.476;8.084;2022-09-09T14:20:51;96298.56;;;22.49
65180;BMP280;51849;47.476;8.084;2022-09-09T14:23:16;96303.06;;;22.56
65180;BMP280;51849;47.476;8.084;2022-09-09T14:25:45;96298.16;;;22.62
65180;BMP280;51849;47.476;8.084;2022-09-09T14:28:12;96301.06;;;22.47
65180;BMP280;51849;47.476;8.084;2022-09-09T14:30:40;96301.22;;;22.49
65180;BMP280;51849;47.476;8.084;2022-09-09T14:33:08;96294.22;;;22.63
65180;BMP280;51849;47.476;8.084;2022-09-09T14:35:40;96300.69;;;22.60
65180;BMP280;51849;47.476;8.084;2022-09-09T14:38:07;96298.22;;;22.35
65180;BMP280;51849;47.476;8.084;2022-09-09T14:40:37;96288.78;;;22.15
65180;BMP280;51849;47.476;8.084;2022-09-09T14:43:04;96295.72;;;21.92
65180;BMP280;51849;47.476;8.084;2022-09-09T14:45:31;96285.97;;;22.04
65180;BMP280;51849;47.476;8.084;2022-09-09T14:47:57;96279.53;;;22.07
65180;BMP280;51849;47.476;8.084;2022-09-09T14:50:23;96284.75;;;22.24
65180;BMP280;51849;47.476;8.084;2022-09-09T14:52:49;96284.91;;;22.26
65180;BMP280;51849;47.476;8.084;2022-09-09T14:55:17;96285.16;;;22.11
65180;BMP280;51849;47.476;8.084;2022-09-09T14:57:46;96298.38;;;21.92
65180;BMP280;51849;47.476;8.084;2022-09-09T15:00:14;96279.94;;;22.03
65180;BMP280;51849;47.476;8.084;2022-09-09T15:02:41;96290.66;;;22.32
65180;BMP280;51849;47.476;8.084;2022-09-09T15:05:07;96287.75;;;22.37
65180;BMP280;51849;47.476;8.084;2022-09-09T15:07:36;96286.31;;;22.27
65180;BMP280;51849;47.476;8.084;2022-09-09T15:10:08;96283.84;;;22.48
65180;BMP280;51849;47.476;8.084;2022-09-09T15:12:40;96280.31;;;22.26
65180;BMP280;51849;47.476;8.084;2022-09-09T15:15:07;96283.81;;;22.29
65180;BMP280;51849;47.476;8.084;2022-09-09T15:17:33;96288.31;;;22.45
65180;BMP280;51849;47.476;8.084;2022-09-09T15:20:03;96279.59;;;22.26
65180;BMP280;51849;47.476;8.084;2022-09-09T15:22:31;96285.56;;;22.07
65180;BMP280;51849;47.476;8.084;2022-09-09T15:25:01;96287.88;;;21.94
65180;BMP280;51849;47.476;8.084;2022-09-09T15:27:27;96287.06;;;21.74
65180;BMP280;51849;47.476;8.084;2022-09-09T15:29:53;96292.19;;;21.63
65180;BMP280;51849;47.476;8.084;2022-09-09T15:32:21;96281.56;;;21.63
65180;BMP280;51849;47.476;8.084;2022-09-09T15:34:47;96283.38;;;21.87
65180;BMP280;51849;47.476;8.084;2022-09-09T15:37:13;96281.94;;;21.86
65180;BMP280;51849;47.476;8.084;2022-09-09T15:39:39;96274.66;;;21.77
65180;BMP280;51849;47.476;8.084;2022-09-09T15:42:11;96266.72;;;21.86
65180;BMP280;51849;47.476;8.084;2022-09-09T15:45:03;96274.19;;;21.97
65180;BMP280;51849;47.476;8.084;2022-09-09T15:47:30;96275.03;;;22.00
65180;BMP280;51849;47.476;8.084;2022-09-09T15:49:56;96275.00;;;21.90
65180;BMP280;51849;47.476;8.084;2022-09-09T15:52:21;96273.03;;;21.91
65180;BMP280;51849;47.476;8.084;2022-09-09T15:54:47;96274.47;;;21.92
65180;BMP280;51849;47.476;8.084;2022-09-09T15:57:18;96273.84;;;21.84
65180;BMP280;51849;47.476;8.084;2022-09-09T15:59:47;96279.16;;;21.84
65180;BMP280;51849;47.476;8.084;2022-09-09T16:02:13;96288.41;;;21.66
65180;BMP280;51849;47.476;8.084;2022-09-09T16:04:39;96289.50;;;21.53
65180;BMP280;51849;47.476;8.084;2022-09-09T16:07:07;96292.69;;;21.52
65180;BMP280;51849;47.476;8.084;2022-09-09T16:09:35;96294.19;;;21.45
65180;BMP280;51849;47.476;8.084;2022-09-09T16:12:03;96296.63;;;21.34
65180;BMP280;51849;47.476;8.084;2022-09-09T16:14:32;96300.75;;;21.27
65180;BMP280;51849;47.476;8.084;2022-09-09T16:17:03;96307.88;;;21.25
65180;BMP280;51849;47.476;8.084;2022-09-09T16:19:29;96306.72;;;21.01
65180;BMP280;51849;47.476;8.084;2022-09-09T16:21:54;96312.00;;;21.01
65180;BMP280;51849;47.476;8.084;2022-09-09T16:24:20;96323.00;;;20.98
65180;BMP280;51849;47.476;8.084;2022-09-09T16:26:49;96324.16;;;20.87
65180;BMP280;51849;47.476;8.084;2022-09-09T16:29:16;96329.03;;;20.73
65180;BMP280;51849;47.476;8.084;2022-09-09T16:31:46;96340.19;;;20.72
65180;BMP280;51849;47.476;8.084;2022-09-09T16:34:16;96347.31;;;20.62
65180;BMP280;51849;47.476;8.084;2022-09-09T16:36:48;96358.50;;;20.53
65180;BMP280;51849;47.476;8.084;2022-09-09T16:39:16;96368.69;;;20.39
65180;BMP280;51849;47.476;8.084;2022-09-09T16:41:47;96390.91;;;20.12